KCNW

Tstc Waco Airport

Waco, Texas, USA
METAR KCNW 140355Z 35008KT 10SM SKC 00/M06 A3054
Observed Flight Rules
Nov-14 @ 03:55 UTC (52 minutes ago) Visual Flight Rules
Wind Visibility Clouds
350° at 8 knots 10 miles
  • Clear skies
Temperatures Readings
Current 0°C / 32°F
Dewpoint -6°C / 21°F
Humidity 64%
Altimeter 30.54" Hg
Pressure 1034 hPa
Elevation 156
METAR KCNW 140355Z 35008KT 10SM SKC 00/M06 A3054
Observed Flight Rules
Nov-14 @ 03:55 UTC
(52 minutes ago)
VFR
Wind Visibility
350° at 8 knots 10 miles
Clouds
  • Clear skies
Temperature Dewpoint
0°C / 32°F -6°C / 21°F
Humidity Altimeter Pressure
64% 30.54" Hg 1034 hPa